Time;durP1;ratioP1;P1;durP2;ratioP2;P2;SDS_P1;SDS_P2;PMS_P1;PMS_P2;Temp;Humidity;BMP_temperature;BMP_pressure;BME280_temperature;BME280_humidity;BME280_pressure;Samples;Min_cycle;Max_cycle;Signal;HPM_P1;HPM_P2
2024/03/14 00:02:17;;;;;;;9.00;6.10;;;;;;;13.93;65.44;97522.47;5031360;28;20188;-70
2024/03/14 00:04:43;;;;;;;7.13;5.53;;;;;;;13.96;65.15;97513.41;5039512;28;20676;-70
2024/03/14 00:07:08;;;;;;;18.20;5.63;;;;;;;13.94;65.03;97510.94;5031498;28;20257;-70
2024/03/14 00:09:34;;;;;;;11.03;5.47;;;;;;;13.95;64.96;97512.59;5034711;28;20235;-73
2024/03/14 00:11:59;;;;;;;10.80;6.50;;;;;;;13.91;64.92;97521.81;5020242;28;20184;-71
2024/03/14 00:14:25;;;;;;;9.07;6.53;;;;;;;13.85;65.03;97517.22;5032273;28;20675;-70
2024/03/14 00:16:53;;;;;;;12.60;6.23;;;;;;;13.88;65.00;97508.16;5032476;28;20262;-72
2024/03/14 00:19:19;;;;;;;10.57;5.63;;;;;;;13.85;64.96;97517.22;5031581;28;20222;-71
2024/03/14 00:21:46;;;;;;;7.63;5.90;;;;;;;13.86;64.74;97512.75;5041390;28;20430;-71
2024/03/14 00:24:11;;;;;;;9.00;6.40;;;;;;;13.85;64.75;97505.84;5030468;28;20462;-71
2024/03/14 00:26:37;;;;;;;9.13;5.97;;;;;;;13.78;64.68;97505.66;5039872;28;20421;-69
2024/03/14 00:29:02;;;;;;;8.53;6.07;;;;;;;13.75;64.75;97504.19;5042423;28;20305;-71
2024/03/14 00:31:29;;;;;;;7.43;6.53;;;;;;;13.77;64.75;97509.28;5028202;28;20188;-70
2024/03/14 00:33:55;;;;;;;9.80;5.53;;;;;;;13.80;64.54;97504.50;5031331;28;20187;-71
2024/03/14 00:36:21;;;;;;;6.60;5.90;;;;;;;13.77;64.20;97509.28;5030399;28;20543;-70
2024/03/14 00:38:46;;;;;;;7.23;5.70;;;;;;;13.67;64.02;97510.28;5042043;28;20426;-70
2024/03/14 00:41:15;;;;;;;10.83;5.90;;;;;;;13.65;64.27;97511.44;5035250;28;20250;-71
2024/03/14 00:43:40;;;;;;;10.37;6.63;;;;;;;13.60;64.18;97505.84;5029937;28;20254;-72
2024/03/14 00:46:06;;;;;;;6.90;6.20;;;;;;;13.59;64.21;97502.41;5030952;28;20427;-70
2024/03/14 00:48:37;;;;;;;7.67;6.70;;;;;;;13.55;64.01;97505.50;5031781;28;20601;-72
2024/03/14 00:51:07;;;;;;;7.20;6.47;;;;;;;13.48;63.95;97497.47;5033830;28;20821;-71
2024/03/14 00:53:33;;;;;;;10.53;6.63;;;;;;;13.49;64.10;97502.53;5029832;28;20796;-69
2024/03/14 00:56:01;;;;;;;7.93;6.87;;;;;;;13.53;64.21;97500.41;5030251;28;20446;-70
2024/03/14 00:58:27;;;;;;;8.57;6.60;;;;;;;13.57;64.43;97496.47;5036154;28;20455;-72
2024/03/14 01:00:53;;;;;;;7.40;6.70;;;;;;;13.55;64.53;97490.53;5035716;28;20962;-69
2024/03/14 01:03:19;;;;;;;7.30;6.47;;;;;;;13.52;64.34;97491.69;5046344;28;20483;-71
2024/03/14 01:05:44;;;;;;;6.83;6.07;;;;;;;13.50;64.16;97487.56;5035431;28;20187;-71
2024/03/14 01:08:10;;;;;;;6.80;5.33;;;;;;;13.47;63.78;97485.28;5024173;28;20188;-71
2024/03/14 01:10:36;;;;;;;6.13;5.53;;;;;;;13.44;64.14;97483.78;5042508;28;20207;-70
2024/03/14 01:13:01;;;;;;;7.77;6.30;;;;;;;13.34;63.84;97480.44;5030877;28;21121;-72
2024/03/14 01:15:27;;;;;;;9.00;6.23;;;;;;;13.32;64.01;97480.63;5031505;28;20211;-69
2024/03/14 01:17:54;;;;;;;9.20;6.20;;;;;;;13.35;64.04;97490.00;5042161;28;20666;-70
2024/03/14 01:20:20;;;;;;;7.33;6.63;;;;;;;13.36;63.94;97481.13;5033877;28;20877;-69
2024/03/14 01:22:48;;;;;;;9.10;7.00;;;;;;;13.30;64.00;97479.97;5035780;28;20805;-68
2024/03/14 01:25:14;;;;;;;7.80;7.00;;;;;;;13.33;64.25;97471.75;5042830;28;20465;-71
2024/03/14 01:27:40;;;;;;;8.30;6.40;;;;;;;13.35;64.19;97475.03;5030386;28;20515;-70
2024/03/14 01:30:09;;;;;;;11.37;6.23;;;;;;;13.34;64.19;97476.03;5036816;28;20458;-72
2024/03/14 01:32:35;;;;;;;10.10;7.03;;;;;;;13.32;64.40;97475.34;5019708;28;20207;-73
2024/03/14 01:35:01;;;;;;;11.90;6.97;;;;;;;13.28;64.11;97475.84;5028139;28;20463;-71
2024/03/14 01:37:26;;;;;;;9.97;5.73;;;;;;;13.24;64.16;97475.31;5032555;28;20215;-71
2024/03/14 01:39:52;;;;;;;8.20;6.30;;;;;;;13.20;64.00;97472.19;5035416;28;20192;-71
2024/03/14 01:42:17;;;;;;;6.97;6.27;;;;;;;13.17;64.01;97471.72;5024977;28;20191;-71
2024/03/14 01:44:54;;;;;;;6.80;5.87;;;;;;;13.13;64.22;97465.13;5031876;28;20583;-68
2024/03/14 01:47:21;;;;;;;6.77;5.80;;;;;;;13.12;64.15;97466.09;5029832;28;20191;-71
2024/03/14 01:49:47;;;;;;;11.60;6.73;;;;;;;13.08;64.24;97462.16;5036478;28;20779;-70
2024/03/14 01:52:13;;;;;;;12.27;6.00;;;;;;;13.06;64.17;97464.94;5028909;28;20430;-71
2024/03/14 01:54:39;;;;;;;8.27;6.77;;;;;;;12.97;64.60;97465.91;5037892;28;20426;-71
2024/03/14 01:57:04;;;;;;;8.70;6.20;;;;;;;12.99;64.44;97458.69;5031534;28;20197;-70
2024/03/14 01:59:30;;;;;;;9.17;6.40;;;;;;;13.05;64.64;97458.03;5044445;28;20211;-70
2024/03/14 02:01:56;;;;;;;9.40;6.40;;;;;;;13.12;64.52;97455.56;5027529;28;20184;-70
2024/03/14 02:04:42;;;;;;;7.20;6.47;;;;;;;13.13;64.53;97444.06;5035530;28;20207;-70
2024/03/14 02:07:14;;;;;;;6.90;5.87;;;;;;;13.15;64.43;97444.72;5014887;28;20434;-69
2024/03/14 02:09:40;;;;;;;8.00;6.47;;;;;;;13.07;64.02;97442.91;5028984;28;20474;-71
2024/03/14 02:12:07;;;;;;;6.90;6.13;;;;;;;13.03;64.07;97433.72;5037024;28;20422;-70
2024/03/14 02:14:33;;;;;;;8.80;6.10;;;;;;;12.97;64.36;97429.94;5027483;28;20999;-70
2024/03/14 02:16:58;;;;;;;7.00;5.70;;;;;;;13.03;64.76;97434.53;5036369;28;20530;-70
2024/03/14 02:19:24;;;;;;;7.40;6.33;;;;;;;12.97;65.20;97434.34;5028454;28;20287;-71
2024/03/14 02:21:49;;;;;;;6.63;5.93;;;;;;;13.01;65.14;97435.69;5038517;28;20179;-71
2024/03/14 02:24:17;;;;;;;6.70;6.07;;;;;;;12.97;65.45;97435.19;5040085;28;20211;-71
2024/03/14 02:26:42;;;;;;;8.13;6.97;;;;;;;12.92;65.51;97432.22;5035284;28;20187;-70
2024/03/14 02:29:08;;;;;;;7.73;6.93;;;;;;;12.95;65.27;97439.78;5043341;28;20437;-74
2024/03/14 02:31:34;;;;;;;7.67;5.27;;;;;;;12.99;65.39;97435.00;5036748;28;20180;-71
2024/03/14 02:34:00;;;;;;;6.77;5.90;;;;;;;13.02;64.95;97438.13;5035141;28;20768;-71
2024/03/14 02:36:25;;;;;;;6.80;6.10;;;;;;;13.02;64.57;97430.25;5028476;28;20430;-70
2024/03/14 02:38:52;;;;;;;8.00;6.30;;;;;;;12.93;64.76;97433.84;5036653;28;20637;-71
2024/03/14 02:41:18;;;;;;;8.70;6.60;;;;;;;12.75;64.64;97432.16;5027489;28;20208;-69
2024/03/14 02:43:43;;;;;;;6.40;5.80;;;;;;;12.73;64.71;97431.50;5027948;28;20454;-69
2024/03/14 02:46:09;;;;;;;7.83;5.87;;;;;;;12.66;64.16;97424.44;5035680;28;20282;-70
2024/03/14 02:48:38;;;;;;;6.20;5.60;;;;;;;12.59;64.85;97426.88;5039810;28;20175;-71
2024/03/14 02:51:03;;;;;;;7.70;6.23;;;;;;;12.64;64.93;97423.75;5033873;28;20247;-72
2024/03/14 02:53:29;;;;;;;9.30;5.83;;;;;;;12.73;65.15;97417.53;5028334;28;20518;-70
2024/03/14 02:55:55;;;;;;;8.53;6.37;;;;;;;12.71;64.70;97430.84;5028613;28;20188;-72
2024/03/14 02:58:21;;;;;;;8.90;6.77;;;;;;;12.64;64.17;97421.94;5028805;28;20426;-70
2024/03/14 03:00:48;;;;;;;9.23;6.87;;;;;;;12.58;64.60;97425.22;5032151;28;20207;-70
2024/03/14 03:03:15;;;;;;;7.10;5.57;;;;;;;12.53;64.11;97432.75;5037929;28;20187;-72
2024/03/14 03:05:40;;;;;;;6.87;5.63;;;;;;;12.38;64.96;97424.66;5027796;28;20935;-69
2024/03/14 03:08:07;;;;;;;6.30;5.27;;;;;;;12.35;65.11;97431.03;5036444;28;20531;-72
2024/03/14 03:10:33;;;;;;;5.97;5.40;;;;;;;12.39;64.76;97419.22;5028247;28;20575;-71
2024/03/14 03:12:58;;;;;;;8.87;5.83;;;;;;;12.38;64.89;97420.22;5023878;28;20430;-71
2024/03/14 03:15:24;;;;;;;6.97;5.20;;;;;;;12.34;65.23;97424.16;5031100;28;20901;-70
2024/03/14 03:17:50;;;;;;;6.67;5.97;;;;;;;12.35;64.99;97428.41;5035853;28;20182;-70
2024/03/14 03:20:18;;;;;;;6.13;5.53;;;;;;;12.29;65.52;97421.16;5041076;28;20202;-70
2024/03/14 03:25:27;;;;;;;7.83;5.60;;;;;;;12.44;65.10;97427.47;5033302;28;20441;-72
2024/03/14 03:27:53;;;;;;;6.43;5.47;;;;;;;12.43;64.78;97430.25;5034333;28;20426;-72
2024/03/14 03:30:19;;;;;;;6.90;6.20;;;;;;;12.37;64.53;97428.25;5044220;28;20449;-70
2024/03/14 03:32:44;;;;;;;10.80;5.70;;;;;;;12.22;64.44;97426.22;5031583;28;20234;-68
2024/03/14 03:35:11;;;;;;;6.70;5.60;;;;;;;12.26;64.39;97416.22;5033309;28;20437;-70
2024/03/14 03:37:37;;;;;;;6.63;5.90;;;;;;;12.25;64.38;97419.81;5038305;28;20194;-70
2024/03/14 03:40:14;;;;;;;6.70;6.00;;;;;;;12.27;64.53;97420.50;5029505;28;20477;-71
2024/03/14 03:42:41;;;;;;;13.00;6.63;;;;;;;12.32;64.43;97420.88;5043163;28;20439;-71
2024/03/14 03:45:10;;;;;;;7.57;6.77;;;;;;;12.25;64.20;97415.41;5036253;28;20469;-71
2024/03/14 03:47:36;;;;;;;7.57;6.20;;;;;;;12.27;64.65;97412.63;5047707;28;20433;-71
2024/03/14 03:50:02;;;;;;;8.87;6.87;;;;;;;12.26;64.26;97416.22;5036131;28;20442;-69
2024/03/14 03:52:27;;;;;;;10.07;6.60;;;;;;;12.18;64.67;97419.63;5036582;28;21049;-70
2024/03/14 03:54:55;;;;;;;6.43;5.73;;;;;;;12.18;64.78;97416.19;5042009;28;20175;-71
2024/03/14 03:57:21;;;;;;;6.80;5.50;;;;;;;12.17;64.62;97420.63;5037159;28;20184;-71
2024/03/14 03:59:46;;;;;;;13.97;6.77;;;;;;;12.19;64.82;97420.47;5031255;28;20530;-71
2024/03/14 04:02:12;;;;;;;7.33;6.47;;;;;;;12.19;64.16;97423.09;5027967;28;20270;-69
2024/03/14 04:04:37;;;;;;;9.27;6.80;;;;;;;12.20;64.44;97419.50;5034732;28;20928;-71
2024/03/14 04:07:03;;;;;;;6.93;6.23;;;;;;;12.23;64.44;97419.16;5036738;28;20211;-72
2024/03/14 04:09:29;;;;;;;7.30;6.10;;;;;;;12.25;63.97;97415.41;5033234;28;20211;-72
2024/03/14 04:11:56;;;;;;;6.47;5.53;;;;;;;12.24;63.68;97418.19;5029767;28;20547;-72
2024/03/14 04:14:21;;;;;;;6.73;6.03;;;;;;;12.20;63.63;97420.31;5031318;28;20533;-71
2024/03/14 04:16:47;;;;;;;8.20;6.40;;;;;;;12.14;63.62;97424.38;5029993;28;20893;-69
2024/03/14 04:19:12;;;;;;;6.97;5.90;;;;;;;12.12;63.92;97415.84;5025124;28;20184;-68
2024/03/14 04:21:38;;;;;;;7.23;6.53;;;;;;;12.09;63.80;97418.78;5034684;28;20624;-72
2024/03/14 04:24:04;;;;;;;11.53;6.70;;;;;;;12.13;63.84;97422.72;5031450;28;20207;-70
2024/03/14 04:26:29;;;;;;;8.63;6.73;;;;;;;12.14;64.03;97424.38;5032065;28;20195;-70
2024/03/14 04:28:55;;;;;;;6.77;6.10;;;;;;;12.16;63.76;97426.03;5026400;28;20434;-71
2024/03/14 04:31:20;;;;;;;7.70;6.40;;;;;;;12.17;63.63;97427.69;5036593;28;20375;-68
2024/03/14 04:33:45;;;;;;;8.57;6.43;;;;;;;12.16;63.36;97423.41;5043307;28;20268;-69
2024/03/14 04:36:11;;;;;;;8.87;6.97;;;;;;;12.06;63.13;97426.13;5036406;28;20600;-69
2024/03/14 04:38:40;;;;;;;8.50;7.00;;;;;;;12.08;63.46;97427.66;5033808;28;20191;-71
2024/03/14 04:41:14;;;;;;;8.30;7.10;;;;;;;12.02;63.63;97425.63;5026919;28;20203;-70
2024/03/14 04:43:40;;;;;;;7.00;6.30;;;;;;;12.02;63.54;97430.88;5030400;28;20488;-71
2024/03/14 04:46:06;;;;;;;13.17;7.50;;;;;;;12.00;63.62;97422.34;5044730;28;20481;-71
2024/03/14 04:48:32;;;;;;;7.63;6.93;;;;;;;12.02;63.90;97425.63;5030188;28;20484;-69
2024/03/14 04:50:59;;;;;;;8.20;7.40;;;;;;;12.04;63.54;97428.94;5034576;28;20665;-71
2024/03/14 04:53:26;;;;;;;9.40;7.10;;;;;;;12.04;63.64;97428.94;5036458;28;20517;-70
2024/03/14 04:55:54;;;;;;;8.00;6.97;;;;;;;12.08;63.52;97419.78;5038816;28;20429;-71
2024/03/14 04:58:20;;;;;;;7.07;6.37;;;;;;;12.08;62.94;97417.16;5033448;28;20515;-70
2024/03/14 05:00:46;;;;;;;9.03;7.33;;;;;;;11.97;63.20;97417.38;5029538;28;21026;-71
2024/03/14 05:03:13;;;;;;;8.70;7.53;;;;;;;11.85;62.96;97419.44;5037902;28;20457;-70
2024/03/14 05:05:40;;;;;;;11.00;8.30;;;;;;;11.81;62.97;97418.94;5029692;28;20434;-71
2024/03/14 05:08:06;;;;;;;9.30;8.30;;;;;;;11.83;63.12;97421.41;5036532;28;20651;-73
2024/03/14 05:10:31;;;;;;;9.17;7.93;;;;;;;11.75;63.39;97411.66;5032494;28;20529;-71
2024/03/14 05:12:57;;;;;;;8.67;7.77;;;;;;;11.75;63.44;97410.84;5030034;28;20607;-70
2024/03/14 05:15:22;;;;;;;9.77;8.77;;;;;;;11.78;63.71;97408.72;5022108;28;20208;-70
2024/03/14 05:17:48;;;;;;;11.10;9.40;;;;;;;11.74;63.76;97403.94;5028754;28;20188;-70
2024/03/14 05:20:13;;;;;;;11.47;9.10;;;;;;;11.63;63.58;97405.00;5029430;28;20219;-69
2024/03/14 05:22:39;;;;;;;11.83;9.63;;;;;;;11.69;64.23;97407.03;5029949;28;20836;-71
2024/03/14 05:25:09;;;;;;;13.20;10.77;;;;;;;11.72;64.43;97405.91;5037294;28;20306;-71
2024/03/14 05:27:35;;;;;;;15.80;12.23;;;;;;;11.73;64.54;97404.94;5029959;28;20183;-70
2024/03/14 05:30:00;;;;;;;17.40;12.57;;;;;;;11.79;64.36;97415.63;5031411;28;20512;-70
2024/03/14 05:32:28;;;;;;;15.20;11.33;;;;;;;11.78;64.42;97410.53;5040615;28;20184;-70
2024/03/14 05:34:54;;;;;;;15.27;12.67;;;;;;;11.72;64.33;97409.34;5046404;28;20229;-71
2024/03/14 05:37:21;;;;;;;15.37;11.30;;;;;;;11.77;64.80;97411.53;5032635;28;20434;-72
2024/03/14 05:39:47;;;;;;;17.13;12.13;;;;;;;11.81;64.61;97405.81;5025471;28;20200;-70
2024/03/14 05:42:12;;;;;;;13.53;10.70;;;;;;;11.84;64.34;97407.28;5032706;28;20479;-70
2024/03/14 05:44:41;;;;;;;13.27;10.63;;;;;;;11.78;64.44;97400.03;5038779;28;20258;-71
2024/03/14 05:47:09;;;;;;;17.43;14.10;;;;;;;11.83;64.65;97392.50;5029116;28;20267;-71
2024/03/14 05:49:38;;;;;;;18.00;13.70;;;;;;;11.83;65.02;97393.34;5033255;28;20445;-71
2024/03/14 05:52:04;;;;;;;15.50;12.17;;;;;;;11.92;64.64;97394.19;5037626;28;20438;-69
2024/03/14 05:54:30;;;;;;;15.57;12.57;;;;;;;11.95;64.74;97393.06;5039022;28;20483;-70
2024/03/14 05:56:56;;;;;;;15.00;12.03;;;;;;;11.96;64.40;97399.97;5035656;28;20242;-71
2024/03/14 05:59:22;;;;;;;15.13;12.00;;;;;;;12.04;64.40;97401.81;5041679;28;20434;-70
2024/03/14 06:01:47;;;;;;;15.30;12.17;;;;;;;12.09;64.13;97402.19;5040707;28;20430;-69
2024/03/14 06:04:13;;;;;;;14.87;12.20;;;;;;;12.00;64.09;97403.94;5034076;28;20299;-70
2024/03/14 06:06:39;;;;;;;15.00;11.43;;;;;;;12.01;64.22;97402.16;5041559;28;20183;-71
2024/03/14 06:09:04;;;;;;;15.83;12.57;;;;;;;12.05;64.36;97409.56;5034713;28;20977;-69
2024/03/14 06:11:33;;;;;;;16.77;13.57;;;;;;;12.02;64.10;97407.25;5037187;28;20200;-70
2024/03/14 06:13:59;;;;;;;19.90;13.40;;;;;;;12.03;64.15;97411.53;5028546;28;20210;-70
2024/03/14 06:16:25;;;;;;;22.70;14.73;;;;;;;12.05;64.42;97417.44;5032346;28;20445;-67
2024/03/14 06:18:51;;;;;;;20.67;13.27;;;;;;;12.02;64.21;97409.88;5040592;28;20526;-69
2024/03/14 06:21:16;;;;;;;16.90;12.67;;;;;;;12.03;64.33;97413.34;5031471;28;20855;-70
2024/03/14 06:23:42;;;;;;;19.00;13.40;;;;;;;12.06;64.51;97416.47;5030416;28;20204;-70
2024/03/14 06:26:08;;;;;;;18.40;13.67;;;;;;;12.11;64.56;97413.38;5036125;28;20215;-72
2024/03/14 06:28:34;;;;;;;18.20;13.07;;;;;;;12.14;64.50;97410.44;5028531;28;20653;-72
2024/03/14 06:30:59;;;;;;;18.20;13.77;;;;;;;12.16;64.32;97400.56;5028206;28;20880;-72
2024/03/14 06:33:27;;;;;;;16.87;13.10;;;;;;;12.12;65.00;97399.25;5026821;28;20413;-70
2024/03/14 06:35:54;;;;;;;18.03;13.40;;;;;;;12.10;64.82;97404.66;5039343;28;20799;-71
2024/03/14 06:38:19;;;;;;;18.00;13.23;;;;;;;12.07;64.73;97405.00;5024703;28;21024;-71
2024/03/14 06:40:45;;;;;;;19.83;12.90;;;;;;;12.16;64.88;97399.75;5032853;28;20622;-70
2024/03/14 06:43:10;;;;;;;18.90;13.07;;;;;;;12.19;65.01;97391.56;5034605;28;20220;-71
2024/03/14 06:45:36;;;;;;;19.97;13.37;;;;;;;12.20;64.83;97395.84;5034061;28;20187;-71
2024/03/14 06:48:03;;;;;;;21.63;13.60;;;;;;;12.25;64.68;97389.13;5033738;28;20192;-70
2024/03/14 06:50:31;;;;;;;18.67;13.00;;;;;;;12.29;65.10;97390.44;5035721;28;20458;-69
2024/03/14 06:52:58;;;;;;;18.83;13.60;;;;;;;12.33;64.83;97392.75;5038775;28;21192;-71
2024/03/14 06:55:24;;;;;;;19.17;13.03;;;;;;;12.38;64.65;97388.66;5024344;28;20429;-69
2024/03/14 06:57:52;;;;;;;17.97;13.27;;;;;;;12.38;64.23;97391.31;5036359;28;20429;-69
2024/03/14 07:00:22;;;;;;;24.93;13.90;;;;;;;12.37;64.27;97394.91;5027988;28;20207;-70
2024/03/14 07:02:50;;;;;;;17.03;12.73;;;;;;;12.34;64.68;97400.50;5035362;28;20422;-70
2024/03/14 07:05:16;;;;;;;21.53;13.60;;;;;;;12.45;64.80;97394.13;5029214;28;22544;-70
2024/03/14 07:07:44;;;;;;;16.03;12.33;;;;;;;12.51;64.20;97401.38;5033550;28;20433;-71
2024/03/14 07:10:13;;;;;;;18.00;12.70;;;;;;;12.51;64.22;97393.50;5038854;28;20199;-71
2024/03/14 07:12:39;;;;;;;16.83;12.00;;;;;;;12.47;64.32;97396.59;5028268;28;20442;-71
2024/03/14 07:15:05;;;;;;;15.00;11.87;;;;;;;12.51;64.30;97403.16;5036253;28;20470;-71
2024/03/14 07:17:34;;;;;;;19.33;13.13;;;;;;;12.62;64.14;97399.44;5032471;28;20433;-70
2024/03/14 07:20:09;;;;;;;16.63;11.60;;;;;;;12.70;64.35;97402.91;5031250;28;21014;-70
2024/03/14 07:22:39;;;;;;;15.97;11.90;;;;;;;12.75;63.81;97405.84;5025804;28;20421;-71
2024/03/14 07:25:08;;;;;;;23.17;12.60;;;;;;;12.77;63.86;97405.72;5038595;28;20449;-71
2024/03/14 07:27:34;;;;;;;13.70;11.37;;;;;;;12.83;63.81;97402.44;5027881;28;20419;-71
2024/03/14 07:30:00;;;;;;;18.20;12.30;;;;;;;12.93;63.63;97409.34;5036784;28;20548;-69
2024/03/14 07:32:26;;;;;;;16.87;11.20;;;;;;;12.97;63.74;97408.03;5024943;28;21140;-71
2024/03/14 07:34:52;;;;;;;14.50;11.47;;;;;;;13.02;63.75;97411.81;5030437;28;20480;-71
2024/03/14 07:37:23;;;;;;;20.13;12.23;;;;;;;13.10;63.18;97410.22;5027868;28;21001;-69
2024/03/14 07:39:54;;;;;;;16.17;11.80;;;;;;;13.14;62.96;97408.88;5026618;28;20458;-70
2024/03/14 07:42:20;;;;;;;12.40;10.30;;;;;;;13.11;62.86;97404.78;5028620;28;20451;-71
2024/03/14 07:44:45;;;;;;;15.20;10.50;;;;;;;13.20;62.98;97400.34;5036330;28;20469;-71
2024/03/14 07:47:23;;;;;;;13.20;9.40;;;;;;;13.25;62.96;97411.19;5029907;28;20195;-72
2024/03/14 07:49:49;;;;;;;19.60;11.27;;;;;;;13.32;62.71;97404.28;5025478;28;20790;-69
2024/03/14 07:52:17;;;;;;;20.30;8.90;;;;;;;13.39;62.42;97403.63;5026039;28;20461;-69
2024/03/14 07:54:45;;;;;;;14.63;10.30;;;;;;;13.40;62.45;97402.66;5028216;28;20172;-71
2024/03/14 07:57:12;;;;;;;13.53;9.37;;;;;;;13.36;62.47;97408.22;5030256;28;20430;-70
2024/03/14 07:59:38;;;;;;;11.73;9.40;;;;;;;13.50;61.81;97403.31;5033252;28;20804;-69
2024/03/14 08:02:07;;;;;;;12.23;9.10;;;;;;;13.58;62.28;97398.06;5031716;28;20438;-69
2024/03/14 08:04:33;;;;;;;14.03;9.20;;;;;;;13.70;62.12;97402.97;5039599;28;20269;-73
2024/03/14 08:06:59;;;;;;;12.43;8.00;;;;;;;13.81;61.40;97399.97;5044075;28;20430;-72
2024/03/14 08:09:26;;;;;;;14.73;9.30;;;;;;;13.84;61.41;97399.66;5025010;28;20426;-71
2024/03/14 08:11:52;;;;;;;8.97;7.23;;;;;;;13.95;60.39;97401.09;5032793;28;20429;-70
2024/03/14 08:14:18;;;;;;;9.57;8.23;;;;;;;14.04;60.39;97397.47;5044879;28;20414;-70
2024/03/14 08:16:43;;;;;;;10.43;8.43;;;;;;;14.17;60.19;97399.53;5045352;28;20191;-70
2024/03/14 08:19:10;;;;;;;16.80;8.07;;;;;;;14.35;59.80;97401.94;5034537;28;20431;-70
2024/03/14 08:21:36;;;;;;;13.40;8.07;;;;;;;14.57;59.23;97395.09;5031984;28;20214;-69
2024/03/14 08:24:09;;;;;;;8.17;7.30;;;;;;;14.57;58.79;97405.63;5033273;28;20506;-71
2024/03/14 08:26:36;;;;;;;8.83;7.40;;;;;;;14.70;58.31;97399.00;5023436;28;20187;-71
2024/03/14 08:29:02;;;;;;;7.50;6.50;;;;;;;14.81;57.47;97401.25;5030220;28;20951;-72
2024/03/14 08:31:28;;;;;;;10.70;7.20;;;;;;;14.90;57.59;97389.63;5033094;28;20958;-71
2024/03/14 08:33:55;;;;;;;7.13;6.13;;;;;;;15.00;57.25;97393.84;5031216;28;20418;-68
2024/03/14 08:36:21;;;;;;;9.57;6.73;;;;;;;15.19;57.16;97403.13;5030409;28;20227;-70
2024/03/14 08:38:48;;;;;;;8.93;6.30;;;;;;;15.31;56.45;97395.59;5042791;28;20421;-71
2024/03/14 08:41:14;;;;;;;7.17;6.20;;;;;;;15.27;56.36;97391.66;5025348;28;20985;-71
2024/03/14 08:43:40;;;;;;;7.00;5.57;;;;;;;15.56;56.40;97400.69;5041613;28;20460;-71
2024/03/14 08:46:06;;;;;;;8.33;6.27;;;;;;;15.52;55.36;97403.66;5036083;28;20567;-70
2024/03/14 08:48:33;;;;;;;8.13;6.20;;;;;;;15.71;55.58;97401.53;5033657;28;20434;-69
2024/03/14 08:50:59;;;;;;;6.27;5.63;;;;;;;16.10;54.83;97400.50;5044520;28;20974;-72
2024/03/14 08:53:30;;;;;;;11.00;6.40;;;;;;;16.39;53.39;97390.06;5038877;28;20986;-69
2024/03/14 08:55:56;;;;;;;6.83;5.50;;;;;;;16.42;51.83;97398.44;5041027;28;20457;-70
2024/03/14 08:58:25;;;;;;;7.73;5.60;;;;;;;16.38;51.50;97397.16;5035362;28;20863;-70
2024/03/14 09:00:51;;;;;;;5.43;4.93;;;;;;;16.26;51.93;97402.13;5041455;28;20203;-69
2024/03/14 09:03:18;;;;;;;5.50;4.70;;;;;;;16.66;52.58;97396.47;5038181;28;20521;-68
2024/03/14 09:05:44;;;;;;;4.60;4.20;;;;;;;16.88;50.67;97392.03;5035202;28;20487;-71
2024/03/14 09:08:10;;;;;;;5.00;4.50;;;;;;;16.97;50.45;97390.13;5037065;28;20434;-70
2024/03/14 09:10:36;;;;;;;5.43;4.40;;;;;;;17.35;50.75;97397.81;5030125;28;20250;-70
2024/03/14 09:13:02;;;;;;;7.90;5.90;;;;;;;17.40;50.17;97396.38;5037257;28;20950;-70
2024/03/14 09:15:30;;;;;;;6.73;5.77;;;;;;;17.61;49.53;97399.03;5040057;28;20445;-68
2024/03/14 09:17:55;;;;;;;6.33;5.67;;;;;;;17.79;49.22;97390.59;5035627;28;20434;-69
2024/03/14 09:20:21;;;;;;;9.00;5.37;;;;;;;18.15;49.50;97399.38;5032543;28;20457;-69
2024/03/14 09:22:53;;;;;;;6.20;5.60;;;;;;;18.30;48.36;97386.00;5032990;28;20193;-72
2024/03/14 09:25:20;;;;;;;7.53;5.33;;;;;;;18.42;48.01;97392.38;5031285;28;20212;-71
2024/03/14 09:27:45;;;;;;;5.07;4.57;;;;;;;18.39;47.89;97384.81;5030148;28;20442;-71
2024/03/14 09:30:12;;;;;;;5.90;4.50;;;;;;;18.63;47.07;97387.94;5029956;28;20901;-71
2024/03/14 09:32:40;;;;;;;15.10;4.23;;;;;;;18.53;46.79;97380.34;5035633;28;20607;-70
2024/03/14 09:35:07;;;;;;;7.73;3.67;;;;;;;18.61;46.50;97386.50;5030031;28;20441;-68
2024/03/14 09:37:33;;;;;;;7.10;3.43;;;;;;;18.82;46.47;97375.75;5029353;28;20815;-69
2024/03/14 09:39:58;;;;;;;4.80;3.63;;;;;;;18.41;46.28;97384.59;5029828;28;20447;-71
2024/03/14 09:42:25;;;;;;;4.03;3.63;;;;;;;17.88;47.68;97385.97;5036595;28;20190;-70
2024/03/14 09:44:54;;;;;;;14.07;4.60;;;;;;;17.99;47.51;97381.16;5035788;28;20216;-71
2024/03/14 09:47:40;;;;;;;11.97;3.53;;;;;;;17.71;48.41;97384.59;5031503;28;20517;-70
2024/03/14 09:50:26;;;;;;;3.80;3.40;;;;;;;17.84;48.66;97376.75;5029062;28;20461;-69
2024/03/14 09:52:53;;;;;;;15.70;4.60;;;;;;;17.72;48.97;97370.34;5034551;28;20421;-70
2024/03/14 09:55:19;;;;;;;2.87;2.57;;;;;;;17.49;48.76;97382.81;5038406;28;20426;-69
2024/03/14 09:57:45;;;;;;;2.80;2.60;;;;;;;17.45;49.17;97370.97;5035050;28;20437;-71
2024/03/14 10:00:13;;;;;;;4.00;2.57;;;;;;;17.56;49.37;97372.28;5042528;28;20250;-70
2024/03/14 10:02:40;;;;;;;2.93;1.93;;;;;;;17.81;49.16;97374.47;5030704;28;20418;-70
2024/03/14 10:05:11;;;;;;;2.60;2.40;;;;;;;17.81;48.93;97369.16;5029286;28;20466;-69
2024/03/14 10:07:42;;;;;;;10.23;3.10;;;;;;;18.16;48.35;97365.72;5036881;28;20422;-71
2024/03/14 10:10:08;;;;;;;13.73;2.93;;;;;;;18.26;47.67;97361.69;5043384;28;20453;-70
2024/03/14 10:12:34;;;;;;;10.03;2.17;;;;;;;18.38;47.19;97359.28;5028397;28;20446;-70
2024/03/14 10:15:06;;;;;;;1.90;1.80;;;;;;;18.30;46.70;97358.63;5030704;28;20495;-72
2024/03/14 10:17:32;;;;;;;1.90;1.77;;;;;;;18.56;46.86;97361.38;5031325;28;20849;-71
2024/03/14 10:19:58;;;;;;;3.33;1.77;;;;;;;18.80;46.33;97351.22;5029056;28;20485;-70
2024/03/14 10:22:26;;;;;;;26.23;2.90;;;;;;;19.25;46.84;97356.00;5030503;28;20476;-71
2024/03/14 10:24:51;;;;;;;6.17;2.10;;;;;;;19.56;44.82;97354.56;5031404;28;20462;-69
2024/03/14 10:27:19;;;;;;;1.70;1.40;;;;;;;19.58;43.65;97352.53;5029275;28;20578;-71
2024/03/14 10:29:45;;;;;;;1.40;1.30;;;;;;;19.65;44.35;97353.31;5036710;28;20200;-72
2024/03/14 10:32:11;;;;;;;1.50;1.40;;;;;;;19.74;43.32;97345.97;5028320;28;20970;-71
2024/03/14 10:34:37;;;;;;;1.47;1.37;;;;;;;20.03;43.01;97343.03;5030640;28;20419;-72
2024/03/14 10:37:13;;;;;;;9.47;1.70;;;;;;;20.35;43.23;97341.28;5031121;28;20197;-71
2024/03/14 10:39:40;;;;;;;6.40;1.67;;;;;;;20.54;41.96;97333.44;5024096;28;20588;-71
2024/03/14 10:42:07;;;;;;;8.33;1.50;;;;;;;20.52;41.16;97341.59;5044237;28;20512;-71
2024/03/14 10:44:33;;;;;;;2.13;1.40;;;;;;;20.74;40.78;97335.13;5035064;28;20457;-70
2024/03/14 10:46:59;;;;;;;2.83;1.17;;;;;;;21.09;41.09;97329.38;5034184;28;20426;-70
2024/03/14 10:49:24;;;;;;;3.63;1.60;;;;;;;21.04;40.65;97332.72;5032825;28;20226;-71
2024/03/14 10:51:51;;;;;;;7.93;1.50;;;;;;;21.10;41.34;97320.38;5036111;28;20262;-72
2024/03/14 10:54:25;;;;;;;1.40;1.30;;;;;;;21.17;41.35;97321.16;5041769;28;20317;-70
2024/03/14 10:56:52;;;;;;;1.70;1.00;;;;;;;20.67;40.95;97314.69;5025172;28;20434;-70
2024/03/14 10:59:19;;;;;;;2.47;1.13;;;;;;;20.68;40.54;97321.63;5034376;28;20465;-70
2024/03/14 11:01:55;;;;;;;2.60;1.10;;;;;;;20.51;41.17;97310.69;5028865;28;20445;-72
2024/03/14 11:04:21;;;;;;;2.13;1.70;;;;;;;20.30;41.91;97319.78;5036500;28;20583;-70
2024/03/14 11:06:49;;;;;;;2.80;1.47;;;;;;;20.21;42.51;97313.09;5032372;28;20426;-71
2024/03/14 11:09:24;;;;;;;1.87;1.63;;;;;;;20.26;42.43;97310.63;5028750;28;20442;-71
2024/03/14 11:11:54;;;;;;;1.63;1.53;;;;;;;20.34;42.57;97310.38;5028973;28;20764;-70
2024/03/14 11:14:25;;;;;;;1.37;1.10;;;;;;;20.31;42.20;97316.09;5036027;28;20484;-70
2024/03/14 11:16:51;;;;;;;3.20;1.20;;;;;;;19.95;42.24;97323.63;5030525;28;20426;-72
2024/03/14 11:19:20;;;;;;;4.57;1.37;;;;;;;20.14;42.99;97314.97;5043759;28;20465;-71
2024/03/14 11:21:47;;;;;;;1.10;0.90;;;;;;;20.09;42.44;97303.13;5029002;28;20497;-71
2024/03/14 11:24:13;;;;;;;1.00;0.83;;;;;;;20.26;41.62;97306.09;5037353;28;20466;-71
2024/03/14 11:26:42;;;;;;;1.30;1.10;;;;;;;20.36;41.59;97300.34;5033390;28;20949;-72
2024/03/14 11:29:08;;;;;;;1.10;0.90;;;;;;;20.32;41.75;97299.13;5026874;28;20476;-71
2024/03/14 11:31:40;;;;;;;1.40;1.00;;;;;;;20.36;41.45;97300.34;5026194;28;20457;-72